Time;durP1;ratioP1;P1;durP2;ratioP2;P2;SDS_P1;SDS_P2;PMS_P1;PMS_P2;Temp;Humidity;BMP_temperature;BMP_pressure;BME280_temperature;BME280_humidity;BME280_pressure;Samples;Min_cycle;Max_cycle;Signal;HPM_P1;HPM_P2
2022/08/22 00:02:37;;;;;;;37.50;8.10;;;;;;;21.84;63.79;99018.72;1743380;82;21129;-42
2022/08/22 00:05:29;;;;;;;31.80;7.65;;;;;;;21.84;63.83;99016.56;1743420;82;20950;-42
2022/08/22 00:08:06;;;;;;;43.48;8.13;;;;;;;21.83;63.88;99019.96;1743434;81;20938;-43
2022/08/22 00:11:02;;;;;;;33.02;8.38;;;;;;;21.84;63.97;99014.58;1743645;81;20983;-43
2022/08/22 00:13:37;;;;;;;36.50;7.95;;;;;;;21.85;64.01;99013.98;1743140;81;21005;-42
2022/08/22 00:16:28;;;;;;;30.43;7.50;;;;;;;21.81;64.13;99011.34;1742946;81;22070;-43
2022/08/22 00:19:06;;;;;;;28.85;7.80;;;;;;;21.78;64.29;99015.60;1742564;81;21081;-43
2022/08/22 00:21:58;;;;;;;30.35;7.58;;;;;;;21.73;64.42;99010.03;1733928;81;20993;-43
2022/08/22 00:24:37;;;;;;;30.23;7.47;;;;;;;21.71;64.52;99009.69;1728144;83;21031;-42
2022/08/22 00:27:11;;;;;;;36.83;7.95;;;;;;;21.75;64.59;99008.97;1728015;83;21098;-42
2022/08/22 00:29:46;;;;;;;36.68;8.48;;;;;;;21.77;64.68;99010.69;1728354;82;21218;-43
2022/08/22 00:32:25;;;;;;;34.50;8.45;;;;;;;21.78;64.65;99010.86;1728322;83;21589;-43
2022/08/22 00:35:04;;;;;;;32.55;8.03;;;;;;;21.79;64.59;99014.36;1728347;83;21014;-42
2022/08/22 00:37:44;;;;;;;31.25;8.38;;;;;;;21.77;64.50;99012.06;1728529;82;21042;-43
2022/08/22 00:40:32;;;;;;;30.35;7.67;;;;;;;21.73;64.55;99015.55;1728212;83;21065;-43
2022/08/22 00:43:27;;;;;;;37.20;7.75;;;;;;;21.72;64.63;99008.48;1689636;82;21087;-43
2022/08/22 00:46:46;;;;;;;30.32;7.30;;;;;;;21.74;64.61;99004.66;1728166;83;21037;-43
2022/08/22 00:49:28;;;;;;;34.35;8.23;;;;;;;21.73;64.68;99005.12;1728306;83;21106;-42
2022/08/22 00:52:22;;;;;;;32.05;7.95;;;;;;;21.66;64.76;99012.40;1726956;82;21022;-43
2022/08/22 00:55:21;;;;;;;37.00;7.47;;;;;;;21.60;64.81;99012.00;1727684;82;21019;-43
2022/08/22 00:57:59;;;;;;;34.23;7.67;;;;;;;21.52;64.89;99016.98;1728299;83;21233;-42
2022/08/22 01:00:29;;;;;;;42.98;7.12;;;;;;;21.50;64.99;99022.16;1690473;82;20986;-42
2022/08/22 01:03:31;;;;;;;27.52;7.62;;;;;;;21.50;65.00;99025.52;1728130;83;20995;-43
2022/08/22 01:06:39;;;;;;;32.90;7.78;;;;;;;21.47;65.14;99022.27;1727905;83;21594;-42
2022/08/22 01:09:32;;;;;;;31.80;7.92;;;;;;;21.36;65.38;99021.81;1728042;83;21022;-43
2022/08/22 01:12:11;;;;;;;33.78;8.65;;;;;;;21.28;65.52;99020.49;1728021;82;21517;-42
2022/08/22 01:14:50;;;;;;;31.68;7.20;;;;;;;21.25;65.63;99017.39;1728083;82;21013;-43
2022/08/22 01:17:54;;;;;;;34.73;8.60;;;;;;;21.30;65.63;99022.22;1727892;83;21034;-43
2022/08/22 01:20:32;;;;;;;32.75;8.65;;;;;;;21.36;65.58;99028.71;1724709;83;21565;-43
2022/08/22 01:23:27;;;;;;;32.67;8.45;;;;;;;21.37;65.55;99038.53;1727617;82;21548;-42
2022/08/22 01:26:28;;;;;;;33.00;8.03;;;;;;;21.37;65.54;99038.53;1728039;83;21085;-42
2022/08/22 01:29:35;;;;;;;34.53;8.83;;;;;;;21.35;65.56;99031.33;1727885;83;21522;-43
2022/08/22 01:32:32;;;;;;;34.78;7.55;;;;;;;21.29;65.67;99027.56;1728022;83;21039;-42
2022/08/22 01:35:36;;;;;;;39.55;7.83;;;;;;;21.28;65.67;99031.52;1727101;82;21038;-42
2022/08/22 01:38:08;;;;;;;32.50;7.47;;;;;;;21.29;65.67;99033.08;1728266;83;21544;-42
2022/08/22 01:40:58;;;;;;;31.37;8.13;;;;;;;21.27;65.87;99034.11;1728139;83;21234;-43
2022/08/22 01:44:22;;;;;;;33.88;8.15;;;;;;;21.25;65.84;99033.19;1728130;82;21491;-42
2022/08/22 01:47:07;;;;;;;41.28;8.90;;;;;;;21.24;65.73;99041.28;1727884;83;20991;-43
2022/08/22 01:49:38;;;;;;;40.17;8.50;;;;;;;21.17;65.81;99035.97;1728226;82;21051;-42
2022/08/22 01:52:33;;;;;;;33.73;7.75;;;;;;;21.15;65.81;99036.42;1728133;83;21074;-43
2022/08/22 01:55:27;;;;;;;34.05;8.23;;;;;;;21.19;65.74;99039.84;1727318;82;21291;-42
2022/08/22 01:58:02;;;;;;;35.45;8.08;;;;;;;21.19;65.76;99037.09;1727948;82;20987;-42
2022/08/22 02:00:33;;;;;;;27.82;7.75;;;;;;;21.16;65.85;99036.56;1728328;83;20974;-43
2022/08/22 02:03:22;;;;;;;39.53;8.55;;;;;;;21.18;65.83;99033.38;1728194;83;21012;-43
2022/08/22 02:06:00;;;;;;;32.20;8.10;;;;;;;21.19;65.80;99034.94;1728440;83;21512;-42
2022/08/22 02:08:55;;;;;;;34.40;7.10;;;;;;;21.20;65.78;99038.61;1727344;82;21250;-43
2022/08/22 02:11:45;;;;;;;30.08;7.20;;;;;;;21.24;65.78;99031.64;1727938;82;21497;-42
2022/08/22 02:14:26;;;;;;;24.65;7.67;;;;;;;21.25;65.73;99046.34;1728018;83;21003;-42
2022/08/22 02:17:09;;;;;;;36.23;7.67;;;;;;;21.25;65.69;99041.45;1727461;82;21038;-42
2022/08/22 02:19:48;;;;;;;33.02;7.72;;;;;;;21.25;65.70;99043.58;1727917;81;21037;-42
2022/08/22 02:22:23;;;;;;;28.32;7.60;;;;;;;21.23;65.62;99041.89;1757333;80;23125;-42
2022/08/22 02:25:05;;;;;;;35.92;7.35;;;;;;;21.22;65.80;99046.45;1781925;80;21025;-43
2022/08/22 02:27:56;;;;;;;38.60;7.30;;;;;;;21.20;65.83;99045.50;1718814;80;21005;-43
2022/08/22 02:30:31;;;;;;;31.10;8.43;;;;;;;21.22;65.74;99046.45;1782807;80;20965;-43
2022/08/22 02:33:06;;;;;;;28.07;7.08;;;;;;;21.22;65.75;99047.23;1778481;80;20977;-43
2022/08/22 02:35:41;;;;;;;26.70;6.75;;;;;;;21.21;65.74;99045.68;1782692;80;21199;-43
2022/08/22 02:38:22;;;;;;;35.52;8.50;;;;;;;21.20;65.77;99053.03;1782901;80;20996;-43
2022/08/22 02:41:13;;;;;;;28.30;7.70;;;;;;;21.18;65.69;99054.84;1722547;80;21498;-43
2022/08/22 02:43:56;;;;;;;30.35;6.97;;;;;;;21.15;65.86;99054.34;1782525;80;21663;-42
2022/08/22 02:46:50;;;;;;;24.90;6.95;;;;;;;21.13;65.93;99055.95;1781558;80;21029;-42
2022/08/22 02:49:38;;;;;;;26.80;6.83;;;;;;;21.13;65.83;99058.13;1782565;80;22151;-42
2022/08/22 02:52:24;;;;;;;28.02;7.53;;;;;;;21.15;66.01;99052.19;1782699;80;20932;-42
2022/08/22 02:55:02;;;;;;;28.30;7.40;;;;;;;21.15;65.88;99059.86;1782503;80;21025;-42
2022/08/22 02:57:46;;;;;;;36.85;8.18;;;;;;;21.17;65.81;99060.78;1782642;80;21578;-43
2022/08/22 03:00:29;;;;;;;26.20;7.60;;;;;;;21.16;65.78;99070.25;1782662;80;21099;-43
2022/08/22 03:03:07;;;;;;;33.70;7.15;;;;;;;21.10;65.84;99065.10;1752512;80;21378;-42
2022/08/22 03:05:42;;;;;;;30.50;7.75;;;;;;;21.09;66.01;99071.22;1782298;80;22019;-42
2022/08/22 03:08:26;;;;;;;35.17;7.72;;;;;;;21.10;65.91;99065.88;1782398;80;21637;-43
2022/08/22 03:11:25;;;;;;;32.53;7.62;;;;;;;21.12;65.95;99074.47;1783083;80;21076;-42
2022/08/22 03:14:22;;;;;;;29.40;8.30;;;;;;;21.12;65.94;99068.95;1783174;80;21483;-43
2022/08/22 03:17:07;;;;;;;29.37;7.62;;;;;;;21.13;65.88;99066.97;1782941;80;21206;-42
2022/08/22 03:20:01;;;;;;;29.10;7.42;;;;;;;21.10;65.84;99063.13;1782727;80;20981;-42
2022/08/22 03:23:06;;;;;;;22.95;6.15;;;;;;;21.12;65.75;99063.44;1782629;80;21109;-43
2022/08/22 03:25:39;;;;;;;21.93;6.50;;;;;;;21.15;65.71;99063.99;1782595;80;21004;-43
2022/08/22 03:28:11;;;;;;;26.75;7.42;;;;;;;21.17;65.67;99070.42;1782503;80;21005;-42
2022/08/22 03:30:45;;;;;;;27.77;7.72;;;;;;;21.19;65.62;99074.91;1782062;80;21161;-43
2022/08/22 03:33:24;;;;;;;30.27;7.95;;;;;;;21.21;65.51;99082.12;1752117;80;21004;-42
2022/08/22 03:36:18;;;;;;;29.85;8.58;;;;;;;21.20;65.50;99077.21;1782390;80;21024;-43
2022/08/22 03:39:10;;;;;;;28.70;7.17;;;;;;;21.19;65.62;99086.71;1782196;80;21603;-42
2022/08/22 03:41:55;;;;;;;34.75;7.47;;;;;;;21.19;65.73;99079.82;1782196;80;21519;-42
2022/08/22 03:44:46;;;;;;;30.55;7.25;;;;;;;21.23;65.65;99087.98;1781664;80;21036;-42
2022/08/22 03:47:45;;;;;;;28.62;7.62;;;;;;;21.25;65.66;99082.19;1782475;80;21058;-42
2022/08/22 03:50:40;;;;;;;32.53;7.90;;;;;;;21.24;65.57;99088.94;1782432;80;21504;-42
2022/08/22 03:53:50;;;;;;;30.55;7.05;;;;;;;21.22;65.51;99087.20;1781353;80;20964;-43
2022/08/22 03:56:41;;;;;;;27.05;6.95;;;;;;;21.20;65.50;99088.23;1782531;80;21032;-43
2022/08/22 03:59:44;;;;;;;30.68;5.92;;;;;;;21.21;65.36;99091.77;1745365;80;21362;-43
2022/08/22 04:02:22;;;;;;;26.65;7.47;;;;;;;21.23;65.41;99102.55;1782257;80;21605;-42
2022/08/22 04:05:22;;;;;;;29.23;6.85;;;;;;;21.24;65.28;99095.83;1782359;80;21037;-43
2022/08/22 04:08:23;;;;;;;37.75;7.85;;;;;;;21.26;65.24;99098.12;1782687;80;22004;-42
2022/08/22 04:11:06;;;;;;;33.05;7.53;;;;;;;21.24;65.23;99105.48;1782499;80;21570;-42
2022/08/22 04:13:56;;;;;;;29.12;7.05;;;;;;;21.22;65.22;99106.51;1764813;80;21247;-42
2022/08/22 04:16:47;;;;;;;29.37;7.12;;;;;;;21.25;65.15;99102.12;1782501;80;20968;-42
2022/08/22 04:19:40;;;;;;;30.08;7.22;;;;;;;21.30;65.00;99109.82;1782534;80;21295;-42
2022/08/22 04:22:16;;;;;;;28.10;7.05;;;;;;;21.33;64.98;99110.34;1780652;80;20950;-42
2022/08/22 04:24:59;;;;;;;23.65;6.78;;;;;;;21.32;64.91;99109.39;1774228;80;21565;-42
2022/08/22 04:27:41;;;;;;;31.55;7.28;;;;;;;21.33;64.97;99116.46;1774323;80;21074;-42
2022/08/22 04:30:30;;;;;;;30.23;7.33;;;;;;;21.34;64.90;99113.28;1774284;80;21064;-42
2022/08/22 04:33:24;;;;;;;25.88;6.42;;;;;;;21.34;64.90;99111.90;1774273;80;20997;-43
2022/08/22 04:36:03;;;;;;;24.20;7.22;;;;;;;21.35;65.02;99120.31;1774373;80;21021;-43
2022/08/22 04:38:46;;;;;;;27.37;7.62;;;;;;;21.42;64.84;99116.59;1754923;80;21366;-43
2022/08/22 04:41:23;;;;;;;30.27;7.33;;;;;;;21.46;64.86;99113.12;1774373;80;21133;-43
2022/08/22 04:44:00;;;;;;;21.77;6.17;;;;;;;21.49;64.70;99110.88;1774254;80;21020;-43
2022/08/22 04:46:44;;;;;;;21.10;5.90;;;;;;;21.53;64.61;99112.32;1774357;80;21567;-43
2022/08/22 04:49:23;;;;;;;25.00;6.22;;;;;;;21.58;64.41;99109.02;1769047;80;21033;-43
2022/08/22 04:51:58;;;;;;;29.03;6.33;;;;;;;21.68;63.59;99109.91;1774343;80;21515;-43
2022/08/22 04:54:34;;;;;;;24.77;5.40;;;;;;;21.68;63.59;99109.91;1774217;80;21681;-43
2022/08/22 04:57:16;;;;;;;23.07;5.85;;;;;;;21.77;63.56;99115.55;1773581;80;21084;-43
2022/08/22 04:59:42;;;;;;;25.35;5.95;;;;;;;21.83;63.51;99109.66;1745585;80;21017;-43
2022/08/22 05:02:12;;;;;;;26.37;6.45;;;;;;;21.90;63.19;99113.55;1774298;80;21011;-43
2022/08/22 05:04:45;;;;;;;31.80;6.53;;;;;;;21.95;62.99;99114.41;1774426;80;21080;-43
2022/08/22 05:07:17;;;;;;;26.50;7.12;;;;;;;22.01;62.62;99120.94;1774150;80;23137;-43
2022/08/22 05:09:55;;;;;;;25.25;5.97;;;;;;;22.04;62.37;99117.88;1773898;80;20970;-43
2022/08/22 05:12:28;;;;;;;18.10;6.33;;;;;;;22.05;62.23;99122.97;1753748;80;20933;-43
2022/08/22 05:15:15;;;;;;;21.48;6.17;;;;;;;22.07;61.95;99121.16;1774109;80;21595;-43
2022/08/22 05:17:43;;;;;;;24.45;6.35;;;;;;;22.10;62.01;99125.18;1774127;80;21519;-43
2022/08/22 05:20:14;;;;;;;24.15;6.25;;;;;;;22.18;61.83;99126.31;1774550;80;21483;-43
2022/08/22 05:22:44;;;;;;;22.73;6.42;;;;;;;22.25;61.65;99124.12;1774240;80;20989;-43
2022/08/22 05:25:13;;;;;;;;;;;;;;;22.33;61.17;99124.65;1777291;80;21025;-43
2022/08/22 05:27:45;;;;;;;28.83;7.00;;;;;;;22.38;60.83;99129.61;1774380;80;20203;-43
2022/08/22 05:30:23;;;;;;;24.12;6.03;;;;;;;22.34;60.46;99126.20;1774081;80;21045;-43
2022/08/22 05:33:31;;;;;;;22.30;6.47;;;;;;;22.42;60.37;99124.13;1774086;80;21141;-43
2022/08/22 05:36:02;;;;;;;18.42;6.25;;;;;;;22.52;59.97;99132.68;1774397;80;21421;-43
2022/08/22 05:38:33;;;;;;;19.32;6.28;;;;;;;22.57;59.23;99134.11;1774114;80;21515;-43
2022/08/22 05:41:08;;;;;;;25.88;5.87;;;;;;;22.63;58.98;99136.48;1774363;80;21539;-43
2022/08/22 05:43:39;;;;;;;20.57;5.95;;;;;;;22.69;59.22;99131.94;1774237;80;21048;-43
2022/08/22 05:46:10;;;;;;;19.60;6.33;;;;;;;22.75;59.12;99131.54;1774322;80;21056;-43
2022/08/22 05:48:44;;;;;;;25.00;6.60;;;;;;;22.81;59.31;99134.52;1748187;80;20989;-43
2022/08/22 05:51:20;;;;;;;22.87;6.87;;;;;;;22.87;59.41;99132.73;1774142;80;20925;-43
2022/08/22 05:53:52;;;;;;;19.30;5.95;;;;;;;22.92;59.22;99124.64;1774102;80;20997;-43
2022/08/22 05:56:32;;;;;;;18.10;5.78;;;;;;;22.98;58.75;99130.98;1774491;80;21084;-43
2022/08/22 05:59:15;;;;;;;23.57;6.00;;;;;;;23.05;58.58;99128.73;1773968;80;21110;-43
2022/08/22 06:01:48;;;;;;;21.48;6.03;;;;;;;23.11;58.13;99128.31;1773783;80;21481;-43
2022/08/22 06:04:26;;;;;;;15.05;5.75;;;;;;;23.18;57.66;99125.31;1773421;80;21020;-43
2022/08/22 06:07:13;;;;;;;24.00;6.00;;;;;;;23.22;57.31;99124.56;1761989;80;20933;-43
2022/08/22 06:10:00;;;;;;;18.65;5.92;;;;;;;23.27;57.05;99121.83;1774123;80;21113;-43
2022/08/22 06:12:52;;;;;;;20.45;5.58;;;;;;;23.32;57.36;99135.08;1774177;80;21243;-43
2022/08/22 06:16:06;;;;;;;21.85;5.87;;;;;;;23.36;57.76;99128.80;1774165;80;20957;-43
2022/08/22 06:18:33;;;;;;;20.10;6.08;;;;;;;23.43;57.98;99131.30;1773538;80;21008;-43
2022/08/22 06:21:08;;;;;;;21.27;5.55;;;;;;;23.50;58.00;99133.84;1774293;80;21084;-43
2022/08/22 06:23:44;;;;;;;15.95;5.85;;;;;;;23.58;56.94;99130.95;1778587;80;21025;-43
2022/08/22 06:26:11;;;;;;;20.27;6.17;;;;;;;23.67;56.70;99128.88;1782625;80;21397;-43
2022/08/22 06:28:42;;;;;;;23.45;5.75;;;;;;;23.74;56.59;99132.73;1782499;80;20961;-43
2022/08/22 06:31:22;;;;;;;19.70;5.40;;;;;;;23.82;56.17;99131.23;1782538;80;20933;-43
2022/08/22 06:33:58;;;;;;;;;;;;;;;23.90;56.46;99134.52;1785137;80;20969;-43
2022/08/22 06:36:32;;;;;;;15.23;4.90;;;;;;;23.97;55.60;99134.22;1782359;80;20185;-43
2022/08/22 06:39:25;;;;;;;19.02;4.87;;;;;;;23.96;55.47;99131.31;1748973;80;23275;-43
2022/08/22 06:42:04;;;;;;;17.40;4.87;;;;;;;24.09;54.84;99134.75;1781929;80;21008;-43
2022/08/22 06:44:38;;;;;;;13.43;4.78;;;;;;;24.20;54.51;99135.13;1782000;80;21004;-43
2022/08/22 06:47:09;;;;;;;16.80;4.90;;;;;;;24.30;53.62;99139.47;1782506;80;21032;-43
2022/08/22 06:49:36;;;;;;;19.85;5.05;;;;;;;24.39;53.41;99136.72;1782417;80;21048;-43
2022/08/22 06:52:07;;;;;;;19.50;5.15;;;;;;;24.48;53.10;99139.51;1782428;80;21929;-43
2022/08/22 06:54:36;;;;;;;17.15;4.37;;;;;;;24.57;53.17;99140.91;1781768;80;20988;-43
2022/08/22 06:57:05;;;;;;;16.23;4.80;;;;;;;24.66;52.31;99139.53;1782775;80;21019;-43
2022/08/22 06:59:35;;;;;;;14.95;4.40;;;;;;;24.77;52.02;99139.70;1782627;80;20922;-43
2022/08/22 07:02:16;;;;;;;25.10;5.45;;;;;;;24.77;52.02;99139.70;1782679;80;21440;-43
2022/08/22 07:04:43;;;;;;;15.70;4.03;;;;;;;24.85;52.30;99141.70;1782490;80;21540;-43
2022/08/22 07:07:10;;;;;;;16.00;4.33;;;;;;;24.95;52.27;99138.35;1782312;80;20968;-43
2022/08/22 07:09:39;;;;;;;14.47;4.58;;;;;;;25.06;51.16;99136.67;1782632;80;20997;-43
2022/08/22 07:12:14;;;;;;;17.25;4.58;;;;;;;25.19;51.00;99142.66;1752287;80;21262;-43
2022/08/22 07:14:46;;;;;;;15.83;4.47;;;;;;;25.30;50.71;99139.58;1782430;80;20997;-43
2022/08/22 07:17:20;;;;;;;15.38;4.30;;;;;;;25.43;50.02;99142.94;1782546;80;21139;-43
2022/08/22 07:20:26;;;;;;;25.45;4.72;;;;;;;25.56;49.44;99144.81;1782434;80;21527;-43
2022/08/22 07:23:05;;;;;;;16.65;4.80;;;;;;;25.68;49.15;99136.28;1753396;80;20981;-43
2022/08/22 07:25:37;;;;;;;18.05;4.35;;;;;;;25.79;49.02;99128.23;1782587;80;21049;-43
2022/08/22 07:28:15;;;;;;;18.90;4.10;;;;;;;25.91;48.88;99132.03;1781094;80;21588;-43
2022/08/22 07:30:57;;;;;;;13.22;4.15;;;;;;;26.05;48.50;99128.58;1782260;80;21213;-43
2022/08/22 07:33:45;;;;;;;19.15;4.80;;;;;;;26.19;47.89;99127.89;1781403;80;21453;-43
2022/08/22 07:38:41;;;;;;;19.35;4.62;;;;;;;26.45;46.76;99116.36;1787982;79;22771;-42
2022/08/22 07:41:28;;;;;;;22.40;5.30;;;;;;;26.48;46.24;99123.77;1763289;81;20962;-42
2022/08/22 07:44:09;;;;;;;21.23;4.72;;;;;;;26.64;46.26;99121.33;1761690;81;21219;-42
2022/08/22 07:46:41;;;;;;;12.13;3.42;;;;;;;26.79;45.84;99117.20;1762503;81;20895;-42
2022/08/22 07:49:20;;;;;;;15.55;4.42;;;;;;;26.94;45.89;99110.31;1763371;81;21013;-42
2022/08/22 07:51:54;;;;;;;14.78;3.83;;;;;;;27.09;45.63;99111.89;1762948;81;21564;-42
2022/08/22 07:54:32;;;;;;;20.00;4.67;;;;;;;27.24;45.22;99116.08;1763199;81;20942;-42
2022/08/22 07:57:11;;;;;;;17.45;3.67;;;;;;;27.38;45.72;99115.33;1756044;81;21270;-42
2022/08/22 07:59:48;;;;;;;15.53;4.00;;;;;;;27.54;44.99;99115.50;1763293;81;20943;-42
2022/08/22 08:02:15;;;;;;;21.45;4.10;;;;;;;27.69;44.75;99110.70;1763363;81;21512;-42
2022/08/22 08:04:42;;;;;;;15.55;4.17;;;;;;;27.81;44.69;99105.44;1763077;81;21504;-42
2022/08/22 08:07:11;;;;;;;17.27;4.05;;;;;;;27.96;43.78;99105.41;1763288;81;21034;-42
2022/08/22 08:09:50;;;;;;;;;;;;;;;28.05;43.15;99101.11;1766103;81;21074;-42
2022/08/22 08:12:19;;;;;;;16.45;4.25;;;;;;;28.16;42.90;99109.67;1763305;81;20125;-42
2022/08/22 08:14:49;;;;;;;;;;;;;;;28.19;42.58;99103.73;1765818;81;21045;-42
2022/08/22 08:17:25;;;;;;;11.35;3.42;;;;;;;28.33;41.90;99105.70;1763382;81;20132;-42
2022/08/22 08:19:52;;;;;;;13.45;3.87;;;;;;;28.35;41.92;99110.95;1763090;81;21025;-42
2022/08/22 08:22:23;;;;;;;13.50;3.60;;;;;;;28.49;41.90;99113.54;1763051;81;21247;-42
2022/08/22 08:24:51;;;;;;;20.05;6.47;;;;;;;28.63;41.93;99112.70;1763053;81;21052;-42
2022/08/22 08:30:33;;;;;;;17.33;3.87;;;;;;;28.93;41.18;99111.33;1763325;81;20990;-42
2022/08/22 08:33:01;;;;;;;17.82;3.58;;;;;;;29.04;40.76;99110.69;1783137;80;20926;-42
2022/08/22 08:35:31;;;;;;;13.88;3.70;;;;;;;29.13;40.26;99113.31;1753615;81;21117;-43
2022/08/22 08:38:07;;;;;;;15.58;4.22;;;;;;;29.22;39.99;99102.61;1742006;81;20894;-43
2022/08/22 08:40:49;;;;;;;13.75;3.52;;;;;;;29.30;39.56;99104.50;1774141;80;20946;-42
2022/08/22 08:43:37;;;;;;;15.40;3.45;;;;;;;29.40;39.41;99102.30;1723613;80;21511;-43
2022/08/22 08:46:33;;;;;;;13.50;3.80;;;;;;;29.52;39.17;99100.39;1774939;80;21011;-42
2022/08/22 08:49:17;;;;;;;18.25;4.15;;;;;;;29.59;38.49;99099.30;1774543;80;21234;-42
2022/08/22 08:52:11;;;;;;;17.42;3.67;;;;;;;29.65;38.61;99101.52;1774241;80;21822;-42
2022/08/22 08:54:58;;;;;;;17.85;4.00;;;;;;;29.69;38.91;99092.27;1774346;80;20981;-42
2022/08/22 08:58:09;;;;;;;15.38;4.17;;;;;;;29.77;38.49;99093.34;1774239;80;21425;-43
2022/08/22 09:00:52;;;;;;;16.67;3.37;;;;;;;29.88;38.96;99091.26;1774278;80;21520;-42
2022/08/22 09:03:46;;;;;;;12.90;3.77;;;;;;;29.99;37.80;99092.77;1769219;80;21263;-42
2022/08/22 09:06:31;;;;;;;13.80;3.52;;;;;;;30.09;38.04;99093.34;1774086;80;20997;-42
2022/08/22 09:09:03;;;;;;;14.98;3.95;;;;;;;30.18;37.88;99088.95;1737052;82;20998;-42
2022/08/22 09:12:02;;;;;;;16.45;4.10;;;;;;;30.23;37.68;99085.42;1774213;80;21061;-43
2022/08/22 09:14:50;;;;;;;13.13;3.70;;;;;;;30.32;38.01;99090.80;1773515;80;21061;-42
2022/08/22 09:17:39;;;;;;;15.78;4.12;;;;;;;30.39;37.42;99087.55;1774132;80;21213;-42
2022/08/22 09:20:46;;;;;;;16.35;3.40;;;;;;;30.47;37.07;99092.05;1773809;80;20965;-43
2022/08/22 09:23:43;;;;;;;16.23;3.12;;;;;;;30.57;36.80;99084.34;1774337;80;21535;-42
2022/08/22 09:26:28;;;;;;;16.42;3.80;;;;;;;30.73;37.36;99086.31;1774486;80;21013;-43
2022/08/22 09:29:32;;;;;;;18.62;4.30;;;;;;;30.86;36.62;99078.97;1774263;80;21088;-43
2022/08/22 09:32:28;;;;;;;17.35;3.87;;;;;;;31.01;36.54;99077.36;1774458;80;21171;-42
2022/08/22 09:35:32;;;;;;;17.95;3.80;;;;;;;31.18;35.57;99080.23;1774235;80;21547;-42
2022/08/22 09:38:34;;;;;;;16.50;4.50;;;;;;;31.37;34.57;99072.20;1774191;80;21020;-42
2022/08/22 09:41:15;;;;;;;20.55;4.03;;;;;;;31.52;34.44;99068.41;1751455;80;21646;-43
2022/08/22 09:44:03;;;;;;;14.25;3.72;;;;;;;31.67;34.39;99067.52;1773600;80;20984;-42
2022/08/22 09:46:54;;;;;;;17.92;4.15;;;;;;;31.85;33.33;99075.42;1774178;80;22795;-42
2022/08/22 09:49:38;;;;;;;19.55;3.90;;;;;;;32.05;33.20;99067.36;1774298;80;20996;-43
2022/08/22 09:52:40;;;;;;;14.83;3.67;;;;;;;32.26;32.52;99062.34;1773533;80;21072;-43
2022/08/22 09:55:38;;;;;;;19.10;4.08;;;;;;;32.46;31.63;99061.89;1774007;80;21009;-43
2022/08/22 09:58:24;;;;;;;20.08;4.25;;;;;;;32.63;31.42;99061.95;1774128;80;21527;-43
2022/08/22 10:01:02;;;;;;;15.88;4.00;;;;;;;32.78;31.24;99060.22;1774199;80;21246;-43
2022/08/22 10:03:59;;;;;;;22.33;4.20;;;;;;;32.90;31.60;99059.53;1737314;82;21046;-43
2022/08/22 10:06:29;;;;;;;17.07;4.10;;;;;;;33.04;31.10;99067.61;1774137;80;21029;-43
2022/08/22 10:09:04;;;;;;;19.05;4.17;;;;;;;33.17;30.47;99060.02;1737007;82;20910;-43
2022/08/22 10:11:48;;;;;;;19.48;4.12;;;;;;;33.32;30.20;99068.84;1774178;80;21025;-43
2022/08/22 10:14:22;;;;;;;21.23;4.12;;;;;;;33.42;29.47;99068.64;1737290;82;21226;-42
2022/08/22 10:17:17;;;;;;;21.70;3.60;;;;;;;33.50;29.48;99067.45;1774293;80;21480;-43
2022/08/22 10:19:53;;;;;;;19.92;4.05;;;;;;;33.58;28.81;99064.94;1737220;82;20938;-43
2022/08/22 10:22:38;;;;;;;19.27;4.47;;;;;;;33.72;29.11;99067.27;1773295;80;21519;-43
2022/08/22 10:25:33;;;;;;;26.82;5.00;;;;;;;33.85;27.81;99068.80;1774156;80;21589;-43
2022/08/22 10:28:34;;;;;;;24.65;4.97;;;;;;;33.93;26.68;99071.81;1773923;80;21145;-43
2022/08/22 10:31:09;;;;;;;27.80;5.62;;;;;;;34.00;25.79;99071.98;1711409;80;21088;-43
2022/08/22 10:33:43;;;;;;;26.33;4.35;;;;;;;34.05;26.17;99071.80;1773848;80;21531;-43
2022/08/22 10:36:14;;;;;;;31.48;5.40;;;;;;;34.15;26.02;99065.94;1774364;80;21480;-43
2022/08/22 10:38:51;;;;;;;31.90;6.20;;;;;;;34.27;25.85;99066.62;1773988;80;21026;-43
2022/08/22 10:41:53;;;;;;;43.85;6.45;;;;;;;34.40;25.31;99065.30;1736945;82;21810;-43
2022/08/22 10:44:46;;;;;;;31.82;6.30;;;;;;;34.50;25.21;99070.69;1773964;80;21457;-43
2022/08/22 10:47:21;;;;;;;39.38;6.90;;;;;;;34.62;24.98;99065.66;1705869;84;21548;-43
2022/08/22 10:50:05;;;;;;;29.23;6.12;;;;;;;34.72;25.01;99069.00;1704676;84;21078;-43
2022/08/22 10:52:39;;;;;;;37.38;6.85;;;;;;;34.81;24.77;99070.67;1742818;80;21074;-43
2022/08/22 10:55:25;;;;;;;36.20;7.00;;;;;;;34.94;24.71;99074.23;1773232;80;21148;-43
2022/08/22 10:58:14;;;;;;;43.63;6.62;;;;;;;35.06;24.64;99080.56;1737148;82;21089;-43
2022/08/22 11:00:50;;;;;;;40.60;6.37;;;;;;;35.19;24.90;99072.88;1773292;80;21012;-43
2022/08/22 11:03:44;;;;;;;37.40;7.25;;;;;;;35.35;24.69;99077.47;1774164;80;21068;-43
2022/08/22 11:06:41;;;;;;;31.20;6.45;;;;;;;35.47;24.46;99084.47;1774180;80;21535;-43
2022/08/22 11:09:25;;;;;;;32.40;6.67;;;;;;;35.61;24.44;99074.74;1724972;80;21234;-43
2022/08/22 11:12:04;;;;;;;27.48;6.60;;;;;;;35.83;24.40;99077.84;1737001;82;21520;-43
2022/08/22 11:14:42;;;;;;;25.50;5.75;;;;;;;35.97;24.61;99083.61;1773605;80;21024;-43
2022/08/22 11:17:35;;;;;;;38.85;6.58;;;;;;;36.18;24.47;99080.95;1736960;82;21001;-43
2022/08/22 11:20:25;;;;;;;34.78;6.50;;;;;;;36.36;24.27;99077.25;1774148;80;21109;-43
2022/08/22 11:23:03;;;;;;;49.23;7.05;;;;;;;36.49;23.96;99081.49;1773867;80;21127;-43
2022/08/22 11:26:00;;;;;;;38.83;7.53;;;;;;;36.61;24.17;99077.80;1774268;80;21012;-43
2022/08/22 11:28:47;;;;;;;39.25;7.37;;;;;;;36.73;24.10;99079.09;1774201;80;21001;-43
2022/08/22 11:31:44;;;;;;;42.93;7.60;;;;;;;36.93;24.10;99071.33;1773387;80;21355;-43
2022/08/22 11:34:25;;;;;;;41.28;7.42;;;;;;;37.11;23.28;99069.66;1674729;85;21642;-43
2022/08/22 11:37:04;;;;;;;38.05;6.65;;;;;;;37.22;23.47;99071.47;1654447;85;21896;-43
2022/08/22 11:39:44;;;;;;;42.85;6.72;;;;;;;37.28;23.53;99077.73;1739636;80;20929;-43
2022/08/22 11:42:22;;;;;;;;;;;;;;;37.38;23.58;99080.19;1783041;80;21617;-43
2022/08/22 11:44:58;;;;;;;39.92;7.45;;;;;;;37.55;23.56;99081.99;1782320;80;20124;-43
2022/08/22 11:47:29;;;;;;;37.90;7.90;;;;;;;37.67;23.13;99073.97;1782240;80;21091;-43
2022/08/22 11:50:17;;;;;;;36.30;6.97;;;;;;;37.78;22.68;99073.03;1782498;80;21071;-43
2022/08/22 11:53:02;;;;;;;41.13;7.20;;;;;;;37.77;22.37;99071.51;1781588;80;20978;-43
2022/08/22 11:55:49;;;;;;;37.33;7.80;;;;;;;37.76;22.77;99075.64;1781389;80;21503;-43
2022/08/22 11:58:44;;;;;;;53.13;8.05;;;;;;;37.92;23.64;99073.70;1782465;80;21510;-43
2022/08/22 12:01:23;;;;;;;42.58;8.20;;;;;;;38.16;22.50;99066.91;1782413;80;21039;-43
2022/08/22 12:04:17;;;;;;;;;;;;;;;38.41;21.75;99064.40;1756691;80;21138;-43
2022/08/22 12:06:58;;;;;;;46.68;7.95;;;;;;;38.49;21.55;99068.81;1781578;80;21486;-43
2022/08/22 12:09:44;;;;;;;42.93;7.67;;;;;;;38.39;21.69;99069.23;1782461;80;20988;-43
2022/08/22 12:12:29;;;;;;;45.67;8.65;;;;;;;38.54;22.10;99059.39;1782383;80;21004;-43
2022/08/22 12:15:17;;;;;;;54.53;9.85;;;;;;;38.77;21.55;99070.84;1782314;80;21446;-43
2022/08/22 12:18:04;;;;;;;46.92;8.35;;;;;;;38.95;21.12;99062.70;1782593;80;21781;-43
2022/08/22 12:20:57;;;;;;;53.42;10.20;;;;;;;39.11;21.54;99064.91;1782536;80;21507;-43
2022/08/22 12:23:59;;;;;;;46.73;9.50;;;;;;;39.24;20.05;99070.41;1782420;80;20969;-43
2022/08/22 12:27:08;;;;;;;51.80;9.35;;;;;;;39.19;19.77;99069.17;1782570;80;20906;-43
2022/08/22 12:30:06;;;;;;;61.55;9.15;;;;;;;39.15;20.07;99062.45;1782418;80;20993;-43
2022/08/22 12:33:01;;;;;;;50.60;9.20;;;;;;;39.19;19.83;99062.84;1782497;80;22496;-43
2022/08/22 12:35:49;;;;;;;56.98;9.15;;;;;;;39.23;19.36;99066.06;1782468;80;20968;-43
2022/08/22 12:38:49;;;;;;;52.95;9.28;;;;;;;39.27;19.72;99066.44;1779859;80;20934;-43
2022/08/22 12:41:39;;;;;;;48.90;9.33;;;;;;;39.13;20.24;99035.31;1782265;80;21460;-43
2022/08/22 12:44:18;;;;;;;49.70;8.90;;;;;;;39.45;19.87;99067.45;1782539;80;20997;-43
2022/08/22 12:47:28;;;;;;;50.25;8.90;;;;;;;39.47;20.13;99061.29;1782431;80;21247;-43
2022/08/22 12:50:16;;;;;;;37.90;7.90;;;;;;;39.57;19.97;99070.66;1782338;80;21004;-43